Time;durP1;ratioP1;P1;durP2;ratioP2;P2;SDS_P1;SDS_P2;PMS_P1;PMS_P2;Temp;Humidity;BMP_temperature;BMP_pressure;BME280_temperature;BME280_humidity;BME280_pressure;Samples;Min_cycle;Max_cycle;Signal;HPM_P1;HPM_P2
2022/12/30 00:01:43;;;;;;;42.50;30.90;;;;;;;0.40;84.66;97831.52;108021;1267;59725;-63
2022/12/30 00:04:12;;;;;;;42.90;27.90;;;;;;;0.38;82.99;97836.70;108026;1266;59651;-66
2022/12/30 00:06:42;;;;;;;43.50;28.70;;;;;;;0.35;83.51;97839.54;108040;1265;69549;-64
2022/12/30 00:09:11;;;;;;;34.10;23.60;;;;;;;0.37;83.15;97837.08;107979;1267;69848;-64
2022/12/30 00:11:40;;;;;;;31.40;20.30;;;;;;;0.40;82.62;97830.32;108037;1267;69270;-64
2022/12/30 00:34:27;;;;;;;27.30;19.30;;;;;;;0.59;83.90;97845.79;108021;1266;71939;-63
2022/12/30 00:36:57;;;;;;;38.60;25.90;;;;;;;0.60;83.22;97848.52;108068;1266;69847;-63
2022/12/30 00:39:27;;;;;;;27.20;20.10;;;;;;;0.60;82.40;97849.19;108016;1265;69906;-64
2022/12/30 00:44:43;;;;;;;31.60;21.60;;;;;;;0.59;83.46;97843.91;108011;1267;59699;-64
2022/12/30 00:47:13;;;;;;;32.90;24.60;;;;;;;0.58;84.14;97840.34;108004;1267;72004;-63
2022/12/30 00:58:06;;;;;;;30.30;20.80;;;;;;;0.49;84.52;97846.73;108041;1267;59719;-64
2022/12/30 01:00:35;;;;;;;33.20;23.20;;;;;;;0.47;84.55;97842.99;107980;1262;72007;-63
2022/12/30 01:03:05;;;;;;;26.10;19.80;;;;;;;0.45;84.15;97839.78;108012;1264;68145;-64
2022/12/30 01:05:39;;;;;;;34.40;23.80;;;;;;;0.44;83.84;97840.69;107968;1263;69279;-64
2022/12/30 01:08:09;;;;;;;41.30;25.90;;;;;;;0.40;83.33;97839.75;107968;1266;59760;-63
2022/12/30 01:10:39;;;;;;;43.70;30.60;;;;;;;0.34;83.22;97833.40;108073;1267;59750;-63
2022/12/30 01:13:09;;;;;;;36.10;28.00;;;;;;;0.28;84.56;97829.78;108008;1264;71720;-64
2022/12/30 01:15:38;;;;;;;41.20;28.30;;;;;;;0.20;86.50;97832.55;107991;1263;69677;-64
2022/12/30 01:18:08;;;;;;;33.70;23.50;;;;;;;0.12;87.17;97834.79;107976;1265;68435;-64
2022/12/30 01:20:37;;;;;;;33.90;23.20;;;;;;;0.07;86.96;97834.05;108003;1263;59661;-64
2022/12/30 01:23:07;;;;;;;31.30;22.20;;;;;;;0.04;87.02;97829.84;108000;1266;59714;-63
2022/12/30 01:25:40;;;;;;;30.10;23.70;;;;;;;0.04;86.54;97829.52;107976;1267;71338;-64
2022/12/30 01:28:09;;;;;;;31.50;23.60;;;;;;;0.06;85.80;97823.64;108003;1266;69008;-64
2022/12/30 01:30:38;;;;;;;32.40;22.90;;;;;;;0.08;85.25;97822.39;108023;1266;69657;-64
2022/12/30 01:33:07;;;;;;;33.20;23.20;;;;;;;0.11;86.55;97822.84;108006;1265;59795;-63
2022/12/30 01:35:37;;;;;;;35.50;25.30;;;;;;;0.13;87.86;97824.48;108019;1264;59734;-63
2022/12/30 01:38:05;;;;;;;30.80;22.10;;;;;;;0.15;86.91;97819.98;107977;1262;71992;-65
2022/12/30 01:40:40;;;;;;;36.80;25.30;;;;;;;0.17;86.47;97811.02;107954;1267;68235;-63
2022/12/30 01:43:14;;;;;;;35.30;25.40;;;;;;;0.20;85.08;97816.60;108031;1265;69905;-63
2022/12/30 01:45:51;;;;;;;30.60;21.70;;;;;;;0.22;86.41;97828.02;107989;1267;59788;-63
2022/12/30 01:48:28;;;;;;;29.20;21.10;;;;;;;0.23;87.11;97838.80;108046;1267;59677;-63
2022/12/30 01:51:01;;;;;;;29.70;22.00;;;;;;;0.25;86.69;97836.86;108042;1266;71371;-63
2022/12/30 01:53:39;;;;;;;30.20;23.40;;;;;;;0.27;86.63;97838.02;108000;1267;69827;-63
2022/12/30 01:56:08;;;;;;;35.90;25.90;;;;;;;0.28;86.70;97834.75;107982;1267;68434;-63
2022/12/30 01:58:45;;;;;;;32.40;23.10;;;;;;;0.30;86.58;97831.79;108008;1267;59747;-63
2022/12/30 02:01:15;;;;;;;32.80;24.30;;;;;;;0.32;85.53;97830.70;108022;1267;59764;-63
2022/12/30 02:03:48;;;;;;;;;;;;;;;0.35;85.26;97824.44;107995;1267;71973;-63
2022/12/30 02:06:24;;;;;;;34.20;23.00;;;;;;;0.36;85.66;97819.80;107998;1264;69088;-63
2022/12/30 02:08:54;;;;;;;37.00;24.60;;;;;;;0.36;85.83;97813.95;108022;1267;69258;-63
2022/12/30 02:11:23;;;;;;;37.80;26.40;;;;;;;0.38;84.72;97813.92;107972;1267;59782;-64
2022/12/30 02:13:54;;;;;;;34.60;24.40;;;;;;;0.38;85.64;97825.40;108003;1267;59745;-63
2022/12/30 02:16:54;;;;;;;28.80;21.80;;;;;;;0.39;85.11;97837.38;108009;1262;69702;-63
2022/12/30 02:19:45;;;;;;;36.60;23.80;;;;;;;0.37;85.89;97824.23;108002;1264;69217;-63
2022/12/30 02:22:48;;;;;;;34.00;24.40;;;;;;;0.34;83.64;97823.61;107997;1266;68555;-63
2022/12/30 02:25:50;;;;;;;30.70;20.30;;;;;;;0.32;85.95;97828.80;107975;1266;59687;-63
2022/12/30 02:28:54;;;;;;;23.60;16.10;;;;;;;0.33;85.73;97825.52;107985;1262;59730;-63
2022/12/30 02:31:39;;;;;;;32.20;22.80;;;;;;;0.40;85.68;97814.88;107882;1265;71876;-63
2022/12/30 02:34:19;;;;;;;45.60;31.30;;;;;;;0.44;83.82;97813.58;107999;1266;69899;-64
2022/12/30 02:37:08;;;;;;;;;;;;;;;0.41;84.46;97817.77;108003;1266;69291;-64
2022/12/30 02:39:55;;;;;;;33.20;22.20;;;;;;;0.33;88.26;97815.57;107951;1261;59723;-64
2022/12/30 02:45:47;;;;;;;33.10;23.40;;;;;;;0.26;87.20;97814.38;108034;1262;71227;-63
2022/12/30 02:48:22;;;;;;;34.40;24.30;;;;;;;0.30;86.77;97821.84;108005;1264;69364;-63
2022/12/30 02:53:42;;;;;;;;;;;;;;;0.40;86.60;97822.77;107945;1267;59788;-64
2022/12/30 02:56:11;;;;;;;35.70;25.60;;;;;;;0.44;84.56;97803.31;107955;1266;59683;-63
2022/12/30 03:05:26;;;;;;;47.30;30.70;;;;;;;0.49;86.03;97808.31;108035;1264;68603;-64
2022/12/30 03:08:02;;;;;;;41.10;28.00;;;;;;;0.49;86.00;97805.36;107989;1266;60131;-64
2022/12/30 03:11:15;;;;;;;44.90;30.30;;;;;;;0.50;86.80;97803.66;108029;1263;59686;-64
2022/12/30 03:14:10;;;;;;;40.60;27.20;;;;;;;0.48;86.65;97803.86;107954;1266;70269;-64
2022/12/30 03:16:51;;;;;;;38.00;25.90;;;;;;;0.48;87.27;97807.64;108028;1267;68359;-64
2022/12/30 03:19:26;;;;;;;34.00;24.40;;;;;;;0.51;85.96;97812.55;108004;1265;69697;-64
2022/12/30 03:21:56;;;;;;;31.80;21.70;;;;;;;0.53;85.95;97813.87;108019;1266;59689;-64
2022/12/30 03:27:23;;;;;;;46.30;32.60;;;;;;;0.60;85.64;97813.52;108089;1267;70586;-64
2022/12/30 03:30:01;;;;;;;51.60;34.10;;;;;;;0.61;85.23;97820.37;107973;1262;69201;-64
2022/12/30 03:32:30;;;;;;;44.50;31.50;;;;;;;0.57;86.71;97823.37;108021;1265;69212;-64
2022/12/30 03:35:01;;;;;;;50.20;35.00;;;;;;;0.55;88.21;97824.96;107998;1263;59707;-64
2022/12/30 03:37:39;;;;;;;47.50;32.80;;;;;;;0.53;88.95;97826.39;108028;1259;59712;-64
2022/12/30 03:40:15;;;;;;;;;;;;;;;0.52;88.73;97838.25;108032;1266;71985;-64
2022/12/30 03:42:50;;;;;;;36.30;25.30;;;;;;;0.53;88.04;97832.40;108004;1265;68549;-64
2022/12/30 03:45:22;;;;;;;47.10;32.60;;;;;;;0.55;87.22;97833.89;108012;1267;68535;-64
2022/12/30 03:47:51;;;;;;;;;;;;;;;0.55;86.71;97839.53;108032;1262;59750;-64
2022/12/30 03:50:22;;;;;;;40.70;27.90;;;;;;;0.53;87.39;97836.00;108103;1265;59783;-64
2022/12/30 03:52:52;;;;;;;40.20;28.00;;;;;;;0.54;86.64;97829.30;108019;1262;71878;-64
2022/12/30 03:55:22;;;;;;;41.80;30.40;;;;;;;0.54;88.24;97831.84;107996;1263;68563;-64
2022/12/30 03:57:51;;;;;;;40.10;29.50;;;;;;;0.56;90.58;97841.75;107963;1266;69278;-64
2022/12/30 04:00:22;;;;;;;50.10;33.80;;;;;;;0.57;91.17;97844.46;107996;1267;59693;-64
2022/12/30 04:02:51;;;;;;;44.90;30.90;;;;;;;0.56;91.18;97845.02;107946;1266;60134;-64
2022/12/30 04:05:21;;;;;;;43.90;30.20;;;;;;;0.57;90.10;97838.65;107970;1265;71473;-64
2022/12/30 04:07:52;;;;;;;29.70;22.30;;;;;;;0.57;89.20;97824.60;107965;1265;69187;-64
2022/12/30 04:10:22;;;;;;;25.70;18.80;;;;;;;0.55;89.44;97827.03;108020;1265;69068;-64
2022/12/30 04:12:52;;;;;;;28.10;20.10;;;;;;;0.55;90.99;97829.94;108006;1267;59670;-64
2022/12/30 04:15:22;;;;;;;24.10;18.50;;;;;;;0.56;90.67;97838.14;107999;1264;59693;-64
2022/12/30 04:17:52;;;;;;;;;;;;;;;0.57;90.41;97842.58;108036;1266;71288;-64
2022/12/30 04:20:21;;;;;;;34.40;23.20;;;;;;;0.61;89.53;97846.61;107971;1266;68202;-64
2022/12/30 04:22:50;;;;;;;32.80;22.90;;;;;;;0.62;89.03;97852.05;107991;1265;68835;-64
2022/12/30 04:25:20;;;;;;;37.50;25.10;;;;;;;0.62;89.05;97852.22;107958;1266;59710;-64
2022/12/30 04:27:49;;;;;;;37.50;25.40;;;;;;;0.62;91.09;97851.54;108064;1262;60058;-62
2022/12/30 04:30:19;;;;;;;45.60;32.30;;;;;;;0.62;92.31;97851.21;107982;1266;71287;-62
2022/12/30 04:32:49;;;;;;;41.90;29.30;;;;;;;0.61;93.33;97847.65;107967;1265;68554;-62
2022/12/30 04:35:19;;;;;;;47.90;32.60;;;;;;;0.60;93.31;97848.50;108006;1260;68583;-62
2022/12/30 04:37:49;;;;;;;42.90;31.90;;;;;;;0.57;91.78;97847.90;107981;1263;59708;-62
2022/12/30 04:40:19;;;;;;;43.90;32.90;;;;;;;0.54;90.93;97847.46;108000;1266;59671;-62
2022/12/30 04:42:50;;;;;;;38.00;26.70;;;;;;;0.54;91.79;97848.15;108016;1262;70490;-63
2022/12/30 04:45:20;;;;;;;45.10;29.00;;;;;;;0.57;91.44;97853.56;108011;1260;68388;-63
2022/12/30 04:47:50;;;;;;;38.50;26.90;;;;;;;0.59;92.03;97852.65;107997;1265;69502;-62
2022/12/30 04:50:20;;;;;;;39.30;28.30;;;;;;;0.62;91.97;97852.40;108032;1265;59753;-63
2022/12/30 04:52:49;;;;;;;41.20;30.50;;;;;;;0.64;92.40;97861.59;107958;1262;59707;-63
2022/12/30 04:55:19;;;;;;;41.60;28.30;;;;;;;0.66;94.27;97865.86;108027;1266;71294;-63
2022/12/30 04:57:48;;;;;;;;;;;;;;;0.65;92.93;97865.71;108054;1265;68791;-63
2022/12/30 05:00:18;;;;;;;31.80;21.50;;;;;;;0.65;93.18;97875.31;108014;1267;69978;-63
2022/12/30 05:02:48;;;;;;;36.30;25.60;;;;;;;0.68;92.29;97874.54;108037;1265;60262;-65
2022/12/30 05:05:18;;;;;;;43.30;29.50;;;;;;;0.69;91.58;97867.82;107979;1264;59683;-64
2022/12/30 05:07:47;;;;;;;41.00;27.60;;;;;;;0.67;92.51;97864.27;107967;1265;70608;-64
2022/12/30 05:10:17;;;;;;;49.40;34.00;;;;;;;0.66;93.07;97856.77;108005;1265;69800;-64
2022/12/30 05:12:46;;;;;;;50.50;35.00;;;;;;;0.62;92.42;97847.42;108009;1265;69393;-64
2022/12/30 05:15:15;;;;;;;41.50;30.50;;;;;;;0.57;91.51;97857.16;108019;1260;59705;-64
2022/12/30 05:17:45;;;;;;;;;;;;;;;0.53;91.99;97857.43;108030;1262;59681;-62
2022/12/30 05:20:15;;;;;;;48.20;31.90;;;;;;;0.48;94.53;97848.10;107994;1266;72004;-62
2022/12/30 05:22:44;;;;;;;40.20;29.40;;;;;;;0.47;94.51;97848.85;108067;1260;69752;-64
2022/12/30 05:28:03;;;;;;;47.70;33.40;;;;;;;0.40;94.97;97858.27;107990;1264;59780;-62
2022/12/30 05:30:32;;;;;;;39.90;26.70;;;;;;;0.39;95.05;97854.38;107975;1265;59698;-63
2022/12/30 05:33:01;;;;;;;47.10;31.90;;;;;;;0.35;95.10;97851.88;108031;1262;71367;-63
2022/12/30 05:35:30;;;;;;;49.30;31.30;;;;;;;0.30;94.96;97849.27;108004;1262;69654;-63
2022/12/30 05:37:59;;;;;;;38.40;27.20;;;;;;;0.25;94.58;97850.92;107987;1267;70252;-63
2022/12/30 05:40:28;;;;;;;36.80;27.30;;;;;;;0.24;95.89;97855.25;107941;1265;60077;-63
2022/12/30 05:42:58;;;;;;;41.50;26.80;;;;;;;0.24;97.09;97867.59;108000;1260;59766;-63
2022/12/30 05:45:27;;;;;;;39.90;28.30;;;;;;;0.26;97.42;97870.27;107988;1264;72009;-63
2022/12/30 05:47:56;;;;;;;33.70;24.80;;;;;;;0.29;96.99;97870.90;107962;1265;69153;-63
2022/12/30 05:50:25;;;;;;;40.60;26.00;;;;;;;0.31;96.76;97861.58;107967;1266;69897;-63
2022/12/30 05:52:56;;;;;;;36.60;26.80;;;;;;;0.35;96.47;97852.92;107991;1264;59724;-63
2022/12/30 05:55:25;;;;;;;36.00;26.00;;;;;;;0.37;96.39;97850.98;107970;1266;59696;-63
2022/12/30 05:57:59;;;;;;;31.40;22.40;;;;;;;0.40;95.97;97852.09;108042;1266;72026;-63
2022/12/30 06:00:28;;;;;;;32.50;23.70;;;;;;;0.41;95.74;97850.69;108016;1265;69890;-63
2022/12/30 06:02:57;;;;;;;69.60;46.90;;;;;;;0.43;94.81;97870.73;107963;1266;68783;-63
2022/12/30 06:05:26;;;;;;;44.00;30.30;;;;;;;0.44;93.87;97882.52;108008;1266;59758;-63
2022/12/30 06:07:55;;;;;;;37.60;26.70;;;;;;;0.38;93.42;97880.80;108028;1266;59704;-63
2022/12/30 06:10:24;;;;;;;42.10;28.60;;;;;;;0.34;93.51;97874.20;107994;1263;72106;-63
2022/12/30 06:12:54;;;;;;;57.30;41.10;;;;;;;0.33;95.64;97877.33;108026;1263;69161;-63
2022/12/30 06:15:23;;;;;;;44.50;31.20;;;;;;;0.30;95.28;97879.77;107972;1263;68472;-63
2022/12/30 06:17:52;;;;;;;40.70;30.30;;;;;;;0.27;94.88;97880.03;108019;1266;59753;-63
2022/12/30 06:20:21;;;;;;;40.60;28.50;;;;;;;0.26;96.31;97886.22;108004;1263;59655;-63
2022/12/30 06:22:51;;;;;;;42.90;30.20;;;;;;;0.27;97.57;97885.17;108055;1266;71962;-63
2022/12/30 06:25:21;;;;;;;49.00;34.50;;;;;;;0.25;96.68;97877.34;107993;1266;70071;-63
2022/12/30 06:27:50;;;;;;;49.60;34.50;;;;;;;0.21;96.13;97882.73;107960;1265;70003;-63
2022/12/30 06:30:19;;;;;;;52.10;39.10;;;;;;;0.18;96.38;97881.61;108011;1262;59757;-63
2022/12/30 06:32:48;;;;;;;51.10;37.00;;;;;;;0.17;97.32;97879.56;107977;1266;59670;-64
2022/12/30 06:35:17;;;;;;;50.80;37.90;;;;;;;0.22;99.29;97879.98;108002;1264;71482;-64
2022/12/30 06:37:45;;;;;;;44.40;31.90;;;;;;;0.24;98.74;97879.05;108029;1260;69842;-63
2022/12/30 06:40:14;;;;;;;40.00;28.90;;;;;;;0.28;98.05;97879.14;108014;1266;68793;-64
2022/12/30 06:42:44;;;;;;;40.90;30.40;;;;;;;0.32;96.63;97870.12;107949;1262;59832;-63
2022/12/30 06:45:13;;;;;;;39.10;25.80;;;;;;;0.36;94.63;97866.77;108055;1263;59750;-63
2022/12/30 06:47:42;;;;;;;38.70;25.30;;;;;;;0.40;93.97;97873.89;108074;1265;70561;-63
2022/12/30 06:50:12;;;;;;;32.30;22.60;;;;;;;0.41;95.60;97880.18;108043;1262;69790;-63
2022/12/30 06:52:41;;;;;;;35.30;26.50;;;;;;;0.46;96.23;97890.35;108002;1265;69101;-63
2022/12/30 06:55:10;;;;;;;35.80;26.10;;;;;;;0.51;96.25;97886.46;107975;1265;59726;-63
2022/12/30 06:57:39;;;;;;;39.40;29.40;;;;;;;0.56;95.19;97893.20;108067;1262;59803;-63
2022/12/30 07:00:08;;;;;;;40.70;29.50;;;;;;;0.60;94.70;97895.85;108073;1264;71360;-62
2022/12/30 07:02:37;;;;;;;40.80;30.80;;;;;;;0.66;96.65;97898.78;108017;1266;69685;-63
2022/12/30 07:05:07;;;;;;;41.30;28.70;;;;;;;0.71;96.75;97901.07;108037;1265;69794;-63
2022/12/30 07:07:36;;;;;;;39.20;29.40;;;;;;;0.77;96.94;97901.06;107978;1263;59764;-63
2022/12/30 07:10:06;;;;;;;44.80;31.40;;;;;;;0.84;97.14;97900.36;108014;1265;59687;-63
2022/12/30 07:12:34;;;;;;;39.80;27.80;;;;;;;0.95;97.50;97904.55;108034;1266;71323;-63
2022/12/30 07:15:03;;;;;;;39.70;28.40;;;;;;;1.04;96.38;97897.27;108022;1265;69204;-63
2022/12/30 07:17:32;;;;;;;39.70;30.10;;;;;;;1.15;95.44;97883.77;108056;1266;69255;-63
2022/12/30 07:20:02;;;;;;;43.70;31.10;;;;;;;1.38;94.60;97885.16;108010;1262;59769;-63
2022/12/30 07:22:31;;;;;;;40.20;30.80;;;;;;;1.68;93.40;97885.66;107984;1262;59728;-63
2022/12/30 07:25:00;;;;;;;49.00;37.50;;;;;;;1.86;92.48;97888.74;107998;1264;71889;-63
2022/12/30 07:27:28;;;;;;;55.30;39.30;;;;;;;2.05;91.65;97891.09;108013;1262;69615;-65
2022/12/30 07:29:57;;;;;;;69.10;51.60;;;;;;;2.17;90.94;97894.84;107931;1264;69287;-63
2022/12/30 07:32:26;;;;;;;63.90;47.30;;;;;;;2.27;90.86;97899.15;107977;1264;59751;-63
2022/12/30 07:34:55;;;;;;;65.10;49.60;;;;;;;2.29;88.46;97902.02;107989;1266;59780;-63
2022/12/30 07:37:24;;;;;;;61.10;43.60;;;;;;;2.31;87.96;97899.71;107952;1256;71999;-63
2022/12/30 07:39:52;;;;;;;45.90;34.00;;;;;;;2.34;88.51;97896.34;108009;1262;70154;-63
2022/12/30 07:42:21;;;;;;;54.50;38.00;;;;;;;2.33;88.07;97896.19;107968;1266;69880;-63
2022/12/30 07:44:50;;;;;;;53.20;35.20;;;;;;;2.32;87.38;97895.56;107964;1266;59707;-63
2022/12/30 07:47:19;;;;;;;51.20;37.40;;;;;;;2.31;86.72;97902.30;108008;1266;59648;-63
2022/12/30 07:49:48;;;;;;;48.80;34.20;;;;;;;2.32;86.89;97911.38;108003;1266;71705;-63
2022/12/30 07:52:17;;;;;;;36.60;25.90;;;;;;;2.37;86.53;97919.64;108016;1263;69268;-63
2022/12/30 07:54:45;;;;;;;46.10;33.70;;;;;;;2.41;87.25;97931.05;107956;1266;69709;-64
2022/12/30 07:57:14;;;;;;;47.00;33.40;;;;;;;2.44;87.85;97930.09;107946;1259;59706;-63
2022/12/30 07:59:43;;;;;;;43.40;31.30;;;;;;;2.52;87.75;97935.52;107984;1263;59668;-64
2022/12/30 08:02:12;;;;;;;43.00;34.10;;;;;;;2.59;87.51;97933.75;107998;1265;72084;-64
2022/12/30 08:04:41;;;;;;;51.40;37.20;;;;;;;2.66;87.02;97940.08;108012;1266;69091;-63
2022/12/30 08:07:25;;;;;;;51.80;40.10;;;;;;;2.70;86.72;97938.70;108001;1266;68906;-63
2022/12/30 08:09:54;;;;;;;40.10;31.60;;;;;;;2.75;87.11;97947.16;108036;1260;59757;-63
2022/12/30 08:12:23;;;;;;;39.20;29.10;;;;;;;2.79;86.94;97950.63;107972;1266;59679;-63
2022/12/30 08:14:52;;;;;;;44.70;32.10;;;;;;;2.85;86.40;97952.69;108013;1266;72015;-63
2022/12/30 08:17:21;;;;;;;43.40;32.70;;;;;;;2.90;86.60;97954.42;108015;1265;69812;-63
2022/12/30 08:19:50;;;;;;;58.60;40.40;;;;;;;2.94;86.48;97952.73;107987;1262;69974;-63
2022/12/30 08:22:18;;;;;;;44.20;33.00;;;;;;;2.99;86.47;97952.36;108001;1262;59782;-63
2022/12/30 08:24:47;;;;;;;48.60;35.20;;;;;;;3.02;86.29;97953.48;108000;1264;59701;-63
2022/12/30 08:27:16;;;;;;;71.90;48.80;;;;;;;3.04;86.02;97954.42;108006;1263;71394;-64
2022/12/30 08:29:45;;;;;;;73.80;53.40;;;;;;;3.05;85.78;97954.77;108010;1264;69263;-64
2022/12/30 08:32:13;;;;;;;73.40;52.70;;;;;;;3.03;85.56;97955.16;108017;1265;68465;-63
2022/12/30 08:34:42;;;;;;;80.50;62.30;;;;;;;3.01;86.05;97962.13;107995;1266;59712;-64
2022/12/30 08:37:11;;;;;;;95.40;66.40;;;;;;;3.02;86.40;97965.86;107999;1265;59783;-64
2022/12/30 08:39:40;;;;;;;78.00;54.50;;;;;;;3.02;87.12;97960.20;108021;1264;71359;-64
2022/12/30 08:42:09;;;;;;;52.90;39.20;;;;;;;3.02;86.83;97971.73;107958;1264;69033;-64
2022/12/30 08:44:38;;;;;;;47.00;35.30;;;;;;;3.04;86.47;97975.45;108043;1259;69290;-64
2022/12/30 08:47:07;;;;;;;66.00;48.10;;;;;;;3.12;88.09;97974.00;108030;1262;59716;-64
2022/12/30 08:49:36;;;;;;;53.70;41.80;;;;;;;3.25;89.37;97967.67;107992;1263;59704;-63
2022/12/30 08:52:04;;;;;;;39.40;30.70;;;;;;;3.32;87.26;97961.59;107980;1264;71817;-64
2022/12/30 08:54:33;;;;;;;46.40;33.10;;;;;;;3.34;86.34;97952.21;108000;1265;69838;-63
2022/12/30 08:57:03;;;;;;;54.40;37.20;;;;;;;3.38;85.96;97943.65;107968;1265;69521;-65
2022/12/30 08:59:33;;;;;;;55.80;38.20;;;;;;;3.41;85.04;97948.69;106910;1265;1479694;-64
2022/12/30 09:02:02;;;;;;;47.80;35.40;;;;;;;3.46;85.79;97951.63;108029;1266;59646;-64
2022/12/30 09:04:31;;;;;;;52.30;38.40;;;;;;;3.53;85.91;97950.66;108021;1266;72035;-64
2022/12/30 09:07:00;;;;;;;66.50;50.10;;;;;;;3.59;86.34;97948.06;108022;1265;69633;-64
2022/12/30 09:09:29;;;;;;;57.50;44.20;;;;;;;3.63;85.82;97949.29;108001;1264;69996;-64
2022/12/30 09:12:01;;;;;;;57.70;45.10;;;;;;;3.68;85.67;97946.15;107984;1265;59751;-64
2022/12/30 09:14:30;;;;;;;51.00;37.10;;;;;;;3.73;85.59;97945.98;107961;1262;59699;-64
2022/12/30 09:16:59;;;;;;;58.70;42.10;;;;;;;3.77;85.23;97946.35;107686;1265;70720;-65
2022/12/30 09:19:28;;;;;;;62.60;45.00;;;;;;;3.79;84.96;97943.19;108004;1263;69386;-64
2022/12/30 09:21:57;;;;;;;48.50;34.70;;;;;;;3.83;85.72;97943.02;107982;1262;69913;-64
2022/12/30 09:24:26;;;;;;;41.20;31.50;;;;;;;3.89;85.01;97931.44;107952;1263;59626;-65
2022/12/30 09:26:55;;;;;;;34.40;27.30;;;;;;;3.94;84.26;97929.16;107996;1263;59693;-64
2022/12/30 09:29:28;;;;;;;71.20;56.20;;;;;;;3.99;83.28;97928.09;107991;1265;71160;-65
2022/12/30 09:31:57;;;;;;;73.50;53.00;;;;;;;3.93;84.07;97926.79;108057;1266;69726;-64
2022/12/30 09:34:26;;;;;;;64.40;50.10;;;;;;;3.87;85.21;97924.91;108020;1263;69257;-64
2022/12/30 09:36:55;;;;;;;76.70;58.70;;;;;;;3.94;86.68;97919.66;107965;1264;59724;-64
2022/12/30 09:39:30;;;;;;;63.50;48.50;;;;;;;4.02;87.39;97923.35;108049;1262;59753;-64
2022/12/30 09:44:58;;;;;;;57.20;41.70;;;;;;;4.13;85.12;97921.19;108089;1262;69774;-64
2022/12/30 09:47:32;;;;;;;47.80;37.50;;;;;;;4.19;84.13;97918.39;108036;1262;69929;-65
2022/12/30 09:50:11;;;;;;;49.10;38.10;;;;;;;4.25;83.52;97919.36;108032;1265;59766;-64
2022/12/30 09:52:55;;;;;;;61.90;47.60;;;;;;;4.32;84.72;97925.28;108034;1259;59695;-64
2022/12/30 09:55:29;;;;;;;64.20;48.80;;;;;;;4.35;85.66;97926.53;108009;1266;71400;-63
2022/12/30 09:58:02;;;;;;;60.20;45.80;;;;;;;4.34;86.20;97922.25;107962;1263;69170;-63
2022/12/30 10:00:34;;;;;;;50.30;38.30;;;;;;;4.44;85.74;97916.52;108023;1262;69336;-64
2022/12/30 10:03:17;;;;;;;51.70;39.20;;;;;;;4.57;84.76;97918.02;107798;1262;59697;-64
2022/12/30 10:06:24;;;;;;;60.80;45.40;;;;;;;4.67;84.61;97913.52;108007;1266;59698;-64
2022/12/30 10:09:32;;;;;;;75.80;58.40;;;;;;;4.66;82.96;97909.41;107994;1262;71208;-64
2022/12/30 10:12:12;;;;;;;66.60;50.50;;;;;;;4.65;84.26;97909.27;107853;1260;69178;-64
2022/12/30 10:15:11;;;;;;;70.10;54.50;;;;;;;4.69;84.66;97907.74;108005;1262;70019;-64
2022/12/30 10:18:07;;;;;;;65.70;50.40;;;;;;;4.70;84.67;97907.35;108022;1264;59755;-64
2022/12/30 10:21:21;;;;;;;52.70;40.60;;;;;;;4.72;83.87;97909.36;108030;1260;59723;-63
2022/12/30 10:23:57;;;;;;;51.10;39.00;;;;;;;4.76;84.10;97907.27;107864;1266;71385;-63
2022/12/30 10:26:39;;;;;;;46.50;36.00;;;;;;;4.84;84.07;97908.49;108065;1260;69820;-63
2022/12/30 10:29:29;;;;;;;47.20;37.70;;;;;;;4.90;83.84;97906.19;108027;1263;69216;-63
2022/12/30 10:32:22;;;;;;;44.30;35.60;;;;;;;4.94;83.35;97902.53;108024;1263;59772;-64
2022/12/30 10:35:00;;;;;;;47.50;35.20;;;;;;;5.00;83.31;97901.27;107953;1265;59662;-64
2022/12/30 10:37:34;;;;;;;43.10;30.90;;;;;;;5.05;83.18;97896.53;108014;1265;70411;-63
2022/12/30 10:40:09;;;;;;;48.80;36.40;;;;;;;5.09;82.67;97895.16;108003;1260;69193;-63
2022/12/30 10:43:22;;;;;;;50.50;37.20;;;;;;;5.07;81.97;97894.02;108050;1266;69568;-63
2022/12/30 10:46:03;;;;;;;47.80;34.70;;;;;;;5.08;82.07;97893.11;107717;1267;59751;-64
2022/12/30 10:48:53;;;;;;;49.00;38.00;;;;;;;5.19;83.42;97885.23;108001;1262;59694;-63
2022/12/30 10:51:24;;;;;;;52.80;40.30;;;;;;;5.34;84.99;97881.11;108034;1262;71890;-64
2022/12/30 10:53:55;;;;;;;52.30;40.30;;;;;;;5.50;83.60;97876.07;108057;1262;69830;-63
2022/12/30 10:56:26;;;;;;;39.70;32.50;;;;;;;5.67;81.85;97873.41;108012;1264;68854;-64
2022/12/30 10:59:10;;;;;;;35.90;29.70;;;;;;;5.86;79.85;97866.14;107995;1265;59767;-63
2022/12/30 11:01:42;;;;;;;39.90;32.50;;;;;;;5.96;79.42;97862.73;108050;1266;59648;-65
2022/12/30 11:04:34;;;;;;;40.20;29.80;;;;;;;6.04;79.72;97861.16;108056;1262;71920;-65
2022/12/30 11:07:12;;;;;;;33.90;26.10;;;;;;;6.10;78.51;97854.83;108025;1264;69105;-64
2022/12/30 11:09:42;;;;;;;31.50;25.40;;;;;;;6.15;77.87;97852.33;107989;1266;68341;-64
2022/12/30 11:15:18;;;;;;;34.90;26.10;;;;;;;6.25;77.52;97854.61;108065;1264;59706;-64
2022/12/30 11:17:56;;;;;;;47.30;34.80;;;;;;;6.27;77.79;97849.99;108039;1264;71297;-63
2022/12/30 11:20:38;;;;;;;46.50;34.70;;;;;;;6.23;77.47;97849.38;108020;1263;69000;-63
2022/12/30 11:23:24;;;;;;;45.60;36.90;;;;;;;6.21;77.96;97846.37;107938;1262;69298;-63
2022/12/30 11:25:53;;;;;;;41.90;32.30;;;;;;;6.12;77.65;97841.05;107965;1264;59770;-63
2022/12/30 11:28:26;;;;;;;45.40;33.40;;;;;;;6.11;77.85;97848.17;108034;1266;59752;-63
2022/12/30 11:31:02;;;;;;;41.70;32.20;;;;;;;6.09;78.01;97852.08;108028;1266;71284;-63
2022/12/30 11:33:45;;;;;;;38.40;28.40;;;;;;;6.05;78.88;97854.88;108023;1265;69048;-63
2022/12/30 11:36:26;;;;;;;38.80;29.60;;;;;;;6.08;79.86;97861.12;108004;1260;69196;-63
2022/12/30 11:39:03;;;;;;;37.70;29.30;;;;;;;6.10;79.68;97861.91;108025;1262;59686;-63
2022/12/30 11:41:44;;;;;;;31.80;24.30;;;;;;;6.13;79.99;97863.83;107970;1262;59648;-63
2022/12/30 11:44:18;;;;;;;37.90;28.70;;;;;;;6.17;79.54;97860.39;107994;1265;70398;-63
2022/12/30 11:46:52;;;;;;;36.00;28.40;;;;;;;6.20;79.11;97860.23;107988;1265;68235;-63
2022/12/30 11:49:50;;;;;;;31.80;26.00;;;;;;;6.20;77.86;97859.88;107993;1264;69200;-63
2022/12/30 11:52:24;;;;;;;31.00;24.80;;;;;;;6.17;77.55;97860.72;108017;1262;59708;-63
2022/12/30 12:06:08;;;;;;;26.10;20.20;;;;;;;6.30;79.65;97871.02;105501;1296;608523;-65
2022/12/30 12:08:51;;;;;;;28.80;23.70;;;;;;;6.22;79.95;97874.15;106815;1279;220523;-64
2022/12/30 12:11:28;;;;;;;28.80;24.00;;;;;;;6.22;80.32;97875.23;107275;1275;57656;-64
2022/12/30 12:14:22;;;;;;;29.50;22.90;;;;;;;6.22;79.74;97876.91;107168;1273;69508;-64
2022/12/30 12:17:01;;;;;;;27.50;22.00;;;;;;;6.14;81.27;97879.02;107213;1279;69198;-64
2022/12/30 12:19:49;;;;;;;30.00;24.20;;;;;;;6.15;81.36;97880.71;107271;1279;69212;-64
2022/12/30 12:22:32;;;;;;;27.20;21.40;;;;;;;6.10;80.14;97879.89;107214;1275;57698;-64
2022/12/30 12:25:13;;;;;;;30.30;24.50;;;;;;;6.04;80.51;97875.66;107372;1268;57674;-64
2022/12/30 12:27:42;;;;;;;27.60;22.10;;;;;;;5.99;82.08;97874.89;107706;1263;67852;-65
2022/12/30 12:30:12;;;;;;;29.50;24.10;;;;;;;5.96;84.41;97876.40;107760;1264;68844;-64
2022/12/30 12:32:53;;;;;;;32.50;23.50;;;;;;;5.95;85.32;97876.10;107710;1266;69797;-64
2022/12/30 12:35:39;;;;;;;30.10;23.80;;;;;;;5.95;85.73;97880.44;107805;1266;58194;-64
2022/12/30 12:38:13;;;;;;;28.60;22.00;;;;;;;5.95;86.45;97882.02;107745;1262;58105;-63
2022/12/30 12:40:52;;;;;;;35.00;24.10;;;;;;;5.96;85.89;97883.16;107703;1263;68984;-64
2022/12/30 12:43:26;;;;;;;32.30;25.10;;;;;;;5.98;87.28;97885.15;107723;1262;69725;-63
2022/12/30 12:46:26;;;;;;;33.70;26.10;;;;;;;6.05;87.08;97886.20;107683;1266;69137;-64
2022/12/30 12:48:58;;;;;;;;;;;;;;;6.11;85.64;97886.44;107720;1266;58169;-64
2022/12/30 12:51:55;;;;;;;40.90;29.90;;;;;;;6.07;84.67;97886.43;107660;1266;58097;-64
2022/12/30 12:54:33;;;;;;;40.00;29.60;;;;;;;5.97;83.87;97886.73;107874;1266;70343;-64
2022/12/30 12:57:57;;;;;;;36.50;29.60;;;;;;;5.85;84.60;97879.34;107956;1266;69814;-64